createdAt,value
2023-03-28T00:02:04.962Z,0.70
2023-03-28T00:04:31.562Z,0.50
2023-03-28T00:06:58.012Z,0.50
2023-03-28T00:09:25.792Z,0.70
2023-03-28T00:11:52.574Z,0.95
2023-03-28T00:14:19.015Z,0.77
2023-03-28T00:16:45.697Z,0.90
2023-03-28T00:19:16.259Z,1.20
2023-03-28T00:21:46.851Z,1.50
2023-03-28T00:24:15.570Z,0.73
2023-03-28T00:26:43.171Z,0.82
2023-03-28T00:29:15.771Z,0.52
2023-03-28T00:31:42.535Z,0.60
2023-03-28T00:34:09.229Z,1.15
2023-03-28T00:36:39.001Z,1.15
2023-03-28T00:39:06.913Z,1.10
2023-03-28T00:41:39.855Z,0.82
2023-03-28T00:44:37.236Z,1.20
2023-03-28T00:47:04.116Z,0.50
2023-03-28T00:49:32.140Z,0.75
2023-03-28T00:52:01.542Z,0.50
2023-03-28T00:54:29.975Z,0.70
2023-03-28T00:56:59.045Z,1.58
2023-03-28T00:59:29.977Z,0.75
2023-03-28T01:01:56.540Z,1.05
2023-03-28T01:04:25.983Z,1.10
2023-03-28T01:06:54.815Z,1.52
2023-03-28T01:09:24.133Z,0.98
2023-03-28T01:11:54.388Z,1.40
2023-03-28T01:14:23.361Z,0.80
2023-03-28T01:16:52.597Z,0.85
2023-03-28T01:19:29.939Z,1.45
2023-03-28T01:22:31.642Z,0.45
2023-03-28T01:25:26.157Z,1.33
2023-03-28T01:28:03.378Z,0.47
2023-03-28T01:31:00.209Z,0.75
2023-03-28T01:34:01.191Z,1.50
2023-03-28T01:36:57.081Z,0.60
2023-03-28T01:39:44.892Z,1.40
2023-03-28T01:42:33.183Z,1.00
2023-03-28T01:45:14.932Z,1.10
2023-03-28T01:47:47.183Z,1.10
2023-03-28T01:50:29.525Z,0.85
2023-03-28T01:53:22.538Z,1.00
2023-03-28T01:56:10.457Z,0.88
2023-03-28T01:58:46.540Z,1.13
2023-03-28T02:01:30.290Z,0.85
2023-03-28T02:04:01.216Z,1.25
2023-03-28T02:06:35.310Z,1.08
2023-03-28T02:09:04.347Z,1.02
2023-03-28T02:11:51.185Z,1.38
2023-03-28T02:14:42.370Z,1.33
2023-03-28T02:17:39.950Z,1.42
2023-03-28T02:20:28.604Z,1.02
2023-03-28T02:23:14.042Z,0.93
2023-03-28T02:25:59.244Z,1.42
2023-03-28T02:28:39.044Z,0.98
2023-03-28T02:33:42.895Z,0.90
2023-03-28T02:36:22.826Z,0.57
2023-03-28T02:38:56.203Z,0.93
2023-03-28T02:41:28.563Z,0.65
2023-03-28T02:44:41.524Z,0.82
2023-03-28T02:47:38.921Z,1.10
2023-03-28T02:50:22.107Z,1.33
2023-03-28T02:52:54.707Z,1.10
2023-03-28T02:55:46.314Z,0.95
2023-03-28T02:58:40.106Z,0.90
2023-03-28T03:01:10.453Z,1.05
2023-03-28T03:03:37.791Z,1.52
2023-03-28T03:06:05.429Z,0.85
2023-03-28T03:08:32.657Z,1.20
2023-03-28T03:10:59.145Z,1.15
2023-03-28T03:13:25.807Z,1.83
2023-03-28T03:15:56.157Z,1.30
2023-03-28T03:18:23.902Z,1.20
2023-03-28T03:20:50.873Z,1.20
2023-03-28T03:23:17.388Z,1.27
2023-03-28T03:25:45.266Z,1.40
2023-03-28T03:28:41.182Z,0.80
2023-03-28T03:31:08.776Z,1.77
2023-03-28T03:34:10.484Z,0.50
2023-03-28T03:36:42.724Z,0.90
2023-03-28T03:39:09.260Z,0.55
2023-03-28T03:41:36.478Z,1.20
2023-03-28T03:44:05.704Z,1.13
2023-03-28T03:46:32.194Z,0.50
2023-03-28T03:48:58.913Z,1.00
2023-03-28T03:51:25.551Z,1.02
2023-03-28T03:53:54.875Z,1.00
2023-03-28T03:56:29.402Z,0.85
2023-03-28T03:58:57.674Z,1.10
2023-03-28T04:01:30.199Z,1.45
2023-03-28T04:04:08.968Z,1.40
2023-03-28T04:06:58.095Z,1.27
2023-03-28T04:09:27.253Z,1.20
2023-03-28T04:11:59.173Z,1.73
2023-03-28T04:14:26.409Z,1.77
2023-03-28T04:17:06.804Z,1.67
2023-03-28T04:19:33.396Z,0.55
2023-03-28T04:21:59.882Z,1.02
2023-03-28T04:24:26.644Z,0.90
2023-03-28T04:27:13.539Z,1.63
2023-03-28T04:29:44.597Z,1.23
2023-03-28T04:32:25.060Z,0.88
2023-03-28T04:35:08.339Z,1.00
2023-03-28T04:37:37.788Z,0.98
2023-03-28T04:40:10.817Z,1.45
2023-03-28T04:42:48.214Z,0.60
2023-03-28T04:45:18.923Z,0.57
2023-03-28T04:47:48.127Z,1.17
2023-03-28T04:50:19.248Z,1.85
2023-03-28T04:52:45.810Z,0.57
2023-03-28T04:55:16.095Z,0.85
2023-03-28T04:57:43.222Z,1.05
2023-03-28T05:00:17.125Z,1.20
2023-03-28T05:02:56.878Z,1.67
2023-03-28T05:05:26.214Z,1.42
2023-03-28T05:07:53.238Z,1.38
2023-03-28T05:10:21.208Z,1.23
2023-03-28T05:12:49.492Z,1.10
2023-03-28T05:15:21.873Z,1.15
2023-03-28T05:17:59.685Z,1.15
2023-03-28T05:20:32.094Z,1.48
2023-03-28T05:22:59.125Z,1.25
2023-03-28T05:25:26.032Z,1.45
2023-03-28T05:27:52.567Z,2.80
2023-03-28T05:30:19.234Z,1.85
2023-03-28T05:32:47.346Z,2.50
2023-03-28T05:35:15.710Z,1.60
2023-03-28T05:37:46.765Z,1.55
2023-03-28T05:40:14.428Z,1.55
2023-03-28T05:42:43.043Z,1.23
2023-03-28T05:45:13.463Z,1.25
2023-03-28T05:47:39.958Z,1.80
2023-03-28T05:50:07.306Z,1.20
2023-03-28T05:52:34.007Z,1.35
2023-03-28T05:55:06.017Z,1.90
2023-03-28T05:57:32.478Z,2.00
2023-03-28T05:59:59.218Z,1.65
2023-03-28T06:02:25.960Z,1.77
2023-03-28T06:04:57.785Z,1.90
2023-03-28T06:07:35.173Z,2.08
2023-03-28T06:10:10.842Z,1.85
2023-03-28T06:12:37.845Z,1.40
2023-03-28T06:15:04.982Z,2.45
2023-03-28T06:17:35.783Z,1.42
2023-03-28T06:20:09.845Z,2.08
2023-03-28T06:22:37.638Z,2.55
2023-03-28T06:25:07.706Z,2.15
2023-03-28T06:27:35.608Z,2.33
2023-03-28T06:30:04.954Z,2.53
2023-03-28T06:32:37.309Z,2.00
2023-03-28T06:35:04.750Z,2.35
2023-03-28T06:37:31.399Z,2.28
2023-03-28T06:40:04.936Z,1.45
2023-03-28T06:42:31.474Z,2.28
2023-03-28T06:45:13.525Z,2.10
2023-03-28T06:47:50.345Z,2.00
2023-03-28T06:50:18.971Z,2.10
2023-03-28T06:53:08.399Z,2.15
2023-03-28T06:55:35.580Z,2.20
2023-03-28T06:58:02.059Z,2.28
2023-03-28T07:00:46.267Z,2.22
2023-03-28T07:03:38.970Z,2.20
2023-03-28T07:06:07.744Z,2.38
2023-03-28T07:08:34.923Z,2.67
2023-03-28T07:11:02.121Z,2.17
2023-03-28T07:13:29.368Z,2.35
2023-03-28T07:16:05.254Z,1.98
2023-03-28T07:18:32.627Z,1.35
2023-03-28T07:21:04.170Z,1.90
2023-03-28T07:23:32.078Z,1.85
2023-03-28T07:25:58.664Z,1.90
2023-03-28T07:28:25.217Z,2.25
2023-03-28T07:30:54.229Z,1.58
2023-03-28T07:33:27.673Z,1.70
2023-03-28T07:36:01.311Z,1.88
2023-03-28T07:38:27.909Z,1.65
2023-03-28T07:41:00.202Z,1.92
2023-03-28T07:43:27.001Z,1.85
2023-03-28T07:46:02.619Z,1.73
2023-03-28T07:48:29.852Z,1.63
2023-03-28T07:50:56.489Z,1.85
2023-03-28T07:53:23.124Z,1.88
2023-03-28T07:55:54.894Z,1.70
2023-03-28T07:58:25.038Z,1.60
2023-03-28T08:00:54.685Z,1.88
2023-03-28T08:03:30.141Z,2.13
2023-03-28T08:05:59.130Z,2.05
2023-03-28T08:08:25.820Z,1.70
2023-03-28T08:11:18.655Z,1.60
2023-03-28T08:13:45.190Z,1.80
2023-03-28T08:16:19.399Z,2.00
2023-03-28T08:18:47.469Z,1.98
2023-03-28T08:21:17.227Z,1.92
2023-03-28T08:23:44.959Z,2.53
2023-03-28T08:26:30.973Z,2.03
2023-03-28T08:28:58.911Z,1.73
2023-03-28T08:31:28.717Z,2.53
2023-03-28T08:34:02.194Z,2.22
2023-03-28T08:36:34.997Z,1.90
2023-03-28T08:39:04.371Z,2.22
2023-03-28T08:41:47.214Z,1.80
2023-03-28T08:44:23.522Z,2.00
2023-03-28T08:46:53.349Z,1.70
2023-03-28T08:49:20.367Z,1.33
2023-03-28T08:51:53.371Z,2.30
2023-03-28T08:54:29.025Z,1.10
2023-03-28T08:56:57.162Z,2.15
2023-03-28T08:59:29.724Z,2.53
2023-03-28T09:01:56.392Z,1.58
2023-03-28T09:04:29.590Z,1.42
2023-03-28T09:07:22.450Z,1.90
2023-03-28T09:10:10.613Z,1.48
2023-03-28T09:13:06.692Z,1.65
2023-03-28T09:15:55.432Z,2.35
2023-03-28T09:18:48.331Z,1.42
2023-03-28T09:21:33.449Z,1.85
2023-03-28T09:24:21.633Z,1.98
2023-03-28T09:27:16.782Z,2.05
2023-03-28T09:29:45.666Z,2.65
2023-03-28T09:32:22.266Z,2.33
2023-03-28T09:34:50.091Z,2.30
2023-03-28T09:37:38.352Z,2.42
2023-03-28T09:40:18.311Z,2.65
2023-03-28T09:43:15.877Z,2.20
2023-03-28T09:46:03.674Z,2.25
2023-03-28T09:48:32.485Z,2.38
2023-03-28T09:51:05.302Z,2.10
2023-03-28T09:53:36.995Z,2.55
2023-03-28T09:56:30.286Z,2.35
2023-03-28T09:59:11.637Z,2.30
2023-03-28T10:01:46.902Z,2.58
2023-03-28T10:04:44.559Z,2.03
2023-03-28T10:07:32.164Z,2.58
2023-03-28T10:10:21.131Z,2.35
2023-03-28T10:12:57.843Z,2.65
2023-03-28T10:15:45.096Z,2.05
2023-03-28T10:18:38.947Z,2.20
2023-03-28T10:21:24.175Z,1.80
2023-03-28T10:24:07.690Z,2.20
2023-03-28T10:26:35.931Z,1.63
2023-03-28T10:29:06.252Z,2.08
2023-03-28T10:31:33.955Z,2.00
2023-03-28T10:34:25.777Z,1.58
2023-03-28T10:37:03.334Z,2.15
2023-03-28T10:39:58.846Z,1.80
2023-03-28T10:42:51.687Z,1.67
2023-03-28T10:45:41.319Z,1.48
2023-03-28T10:48:18.777Z,2.08
2023-03-28T10:50:54.785Z,1.80
2023-03-28T10:53:59.072Z,1.83
2023-03-28T10:56:33.482Z,2.25
2023-03-28T10:59:16.847Z,1.90
2023-03-28T11:01:55.568Z,2.33
2023-03-28T11:04:31.951Z,2.20
2023-03-28T11:07:12.647Z,1.75
2023-03-28T11:10:25.289Z,2.05
2023-03-28T11:13:22.280Z,1.73
2023-03-28T11:15:55.321Z,1.67
2023-03-28T11:18:49.129Z,2.17
2023-03-28T11:24:29.527Z,1.55
2023-03-28T11:27:16.784Z,1.80
2023-03-28T11:29:55.241Z,1.95
2023-03-28T11:32:43.019Z,2.13
2023-03-28T11:35:22.435Z,1.85
2023-03-28T11:38:02.601Z,2.00
2023-03-28T11:41:02.910Z,1.88
2023-03-28T11:44:24.072Z,1.88
2023-03-28T11:46:59.605Z,2.42
2023-03-28T11:49:35.314Z,2.35
2023-03-28T11:52:23.836Z,2.58
2023-03-28T11:55:17.372Z,2.30
2023-03-28T11:58:04.303Z,1.83
2023-03-28T12:00:40.950Z,1.90
2023-03-28T12:03:30.770Z,1.85
2023-03-28T12:06:08.987Z,1.90
2023-03-28T12:08:45.314Z,1.80
2023-03-28T12:11:19.308Z,1.77
2023-03-28T12:14:11.551Z,2.08
2023-03-28T12:16:49.036Z,1.90
2023-03-28T12:19:27.972Z,1.88
2023-03-28T12:22:04.335Z,1.98
2023-03-28T12:24:50.314Z,2.03
2023-03-28T12:27:47.654Z,2.03
2023-03-28T12:30:32.406Z,2.30
2023-03-28T12:33:15.811Z,1.80
2023-03-28T12:36:17.540Z,2.20
2023-03-28T12:38:57.762Z,2.30
2023-03-28T12:41:33.901Z,1.48
2023-03-28T12:44:06.188Z,2.47
2023-03-28T12:46:55.869Z,2.03
2023-03-28T12:49:34.554Z,2.17
2023-03-28T12:52:06.944Z,1.80
2023-03-28T12:54:34.876Z,1.90
2023-03-28T12:57:07.176Z,2.08
2023-03-28T12:59:41.265Z,1.75
2023-03-28T13:02:38.407Z,2.38
2023-03-28T13:05:16.794Z,2.15
2023-03-28T13:07:58.035Z,1.70
2023-03-28T13:10:34.046Z,2.03
2023-03-28T13:13:12.428Z,1.67
2023-03-28T13:16:02.240Z,1.85
2023-03-28T13:18:33.773Z,1.73
2023-03-28T13:21:04.286Z,2.20
2023-03-28T13:23:46.745Z,1.80
2023-03-28T13:26:13.617Z,1.92
2023-03-28T13:28:44.435Z,2.30
2023-03-28T13:31:24.589Z,2.05
2023-03-28T13:33:58.716Z,1.80
2023-03-28T13:36:28.622Z,1.92
2023-03-28T13:39:04.929Z,2.03
2023-03-28T13:41:41.909Z,1.60
2023-03-28T13:44:13.311Z,1.90
2023-03-28T13:46:45.517Z,1.80
2023-03-28T13:49:23.733Z,1.80
2023-03-28T13:52:00.554Z,1.85
2023-03-28T13:54:30.088Z,2.50
2023-03-28T13:57:03.658Z,1.90
2023-03-28T13:59:36.763Z,1.50
2023-03-28T14:02:18.418Z,1.58
2023-03-28T14:04:54.242Z,2.25
2023-03-28T14:07:26.339Z,1.80
2023-03-28T14:09:53.920Z,1.92
2023-03-28T14:12:21.930Z,2.13
2023-03-28T14:14:51.159Z,2.40
2023-03-28T14:17:21.489Z,2.08
2023-03-28T14:19:52.049Z,2.03
2023-03-28T14:22:21.217Z,2.22
2023-03-28T14:24:51.453Z,2.00
2023-03-28T14:27:36.124Z,2.40
2023-03-28T14:30:06.961Z,2.38
2023-03-28T14:32:35.137Z,2.55
2023-03-28T14:35:16.255Z,3.67
2023-03-28T14:37:53.191Z,1.73
2023-03-28T14:40:32.554Z,2.15
2023-03-28T14:43:02.085Z,1.92
2023-03-28T14:45:29.109Z,1.80
2023-03-28T14:47:57.402Z,1.90
2023-03-28T14:50:26.762Z,1.95
2023-03-28T14:52:53.440Z,1.95
2023-03-28T14:55:22.521Z,2.17
2023-03-28T14:57:53.590Z,1.73
2023-03-28T15:00:23.063Z,1.77
2023-03-28T15:02:51.673Z,1.67
2023-03-28T15:05:20.666Z,1.67
2023-03-28T15:07:56.106Z,1.73
2023-03-28T15:10:24.690Z,1.58
2023-03-28T15:13:07.229Z,1.40
2023-03-28T15:15:36.646Z,1.90
2023-03-28T15:18:11.045Z,1.70
2023-03-28T15:20:38.265Z,1.70
2023-03-28T15:23:14.871Z,2.03
2023-03-28T15:25:42.620Z,1.55
2023-03-28T15:28:10.598Z,1.70
2023-03-28T15:30:43.712Z,1.90
2023-03-28T15:33:18.960Z,1.57
2023-03-28T15:35:46.198Z,1.88
2023-03-28T15:38:12.733Z,1.33
2023-03-28T15:40:42.092Z,1.85
2023-03-28T15:43:29.207Z,1.40
2023-03-28T15:46:16.132Z,2.20
2023-03-28T15:48:43.075Z,1.63
2023-03-28T15:51:18.645Z,1.42
2023-03-28T15:53:46.301Z,1.38
2023-03-28T15:56:27.041Z,2.00
2023-03-28T15:58:58.659Z,1.65
2023-03-28T16:01:28.233Z,1.67
2023-03-28T16:04:14.964Z,2.28
2023-03-28T16:06:43.750Z,1.75
2023-03-28T16:09:18.017Z,1.90
2023-03-28T16:11:46.565Z,1.88
2023-03-28T16:14:55.548Z,2.72
2023-03-28T16:17:43.118Z,4.65
2023-03-28T16:20:20.794Z,2.42
2023-03-28T16:22:48.664Z,2.05
2023-03-28T16:25:15.596Z,1.83
2023-03-28T16:27:42.792Z,1.75
2023-03-28T16:30:20.152Z,3.03
2023-03-28T16:32:46.909Z,3.20
2023-03-28T16:35:13.484Z,3.72
2023-03-28T16:37:39.957Z,3.13
2023-03-28T16:40:07.904Z,4.20
2023-03-28T16:42:34.413Z,10.82
2023-03-28T16:45:01.355Z,3.92
2023-03-28T16:47:29.061Z,2.10
2023-03-28T16:49:55.677Z,2.38
2023-03-28T16:52:22.148Z,4.55
2023-03-28T16:54:48.603Z,3.30
2023-03-28T16:57:15.727Z,1.73
2023-03-28T16:59:43.225Z,2.28
2023-03-28T17:02:10.606Z,2.03
2023-03-28T17:04:37.098Z,2.72
2023-03-28T17:07:03.650Z,2.13
2023-03-28T17:09:30.180Z,2.00
2023-03-28T17:11:56.813Z,2.30
2023-03-28T17:14:23.284Z,1.70
2023-03-28T17:16:49.822Z,1.88
2023-03-28T17:19:19.183Z,1.58
2023-03-28T17:21:45.647Z,2.53
2023-03-28T17:24:12.337Z,2.08
2023-03-28T17:26:39.065Z,1.80
2023-03-28T17:29:07.410Z,2.03
2023-03-28T17:31:34.544Z,1.60
2023-03-28T17:34:01.271Z,1.58
2023-03-28T17:36:28.760Z,1.90
2023-03-28T17:38:57.672Z,1.52
2023-03-28T17:41:25.833Z,1.80
2023-03-28T17:43:53.103Z,1.65
2023-03-28T17:46:19.844Z,1.65
2023-03-28T17:48:46.533Z,1.77
2023-03-28T17:51:13.881Z,1.75
2023-03-28T17:53:41.622Z,1.30
2023-03-28T17:56:08.639Z,2.08
2023-03-28T17:58:35.666Z,1.67
2023-03-28T18:01:02.129Z,1.63
2023-03-28T18:03:28.883Z,1.55
2023-03-28T18:06:10.298Z,1.40
2023-03-28T18:08:36.799Z,1.80
2023-03-28T18:11:09.016Z,2.35
2023-03-28T18:13:36.497Z,1.70
2023-03-28T18:16:04.615Z,1.83
2023-03-28T18:18:32.069Z,1.75
2023-03-28T18:20:58.568Z,1.75
2023-03-28T18:23:25.288Z,1.60
2023-03-28T18:25:52.425Z,1.70
2023-03-28T18:28:23.463Z,2.05
2023-03-28T18:30:51.140Z,1.88
2023-03-28T18:33:18.481Z,2.25
2023-03-28T18:35:48.648Z,2.30
2023-03-28T18:38:15.721Z,2.10
2023-03-28T18:40:42.805Z,2.25
2023-03-28T18:43:10.045Z,2.15
2023-03-28T18:45:36.783Z,1.90
2023-03-28T18:48:03.726Z,1.80
2023-03-28T18:50:31.318Z,1.92
2023-03-28T18:52:58.046Z,2.20
2023-03-28T18:55:24.842Z,1.70
2023-03-28T18:57:52.652Z,2.28
2023-03-28T19:00:19.916Z,1.77
2023-03-28T19:02:47.844Z,2.10
2023-03-28T19:05:15.880Z,2.15
2023-03-28T19:07:42.986Z,2.65
2023-03-28T19:10:11.708Z,2.03
2023-03-28T19:12:38.332Z,1.80
2023-03-28T19:15:06.147Z,2.05
2023-03-28T19:17:34.619Z,1.98
2023-03-28T19:20:05.923Z,3.08
2023-03-28T19:22:32.423Z,3.25
2023-03-28T19:24:58.957Z,3.03
2023-03-28T19:27:25.492Z,2.80
2023-03-28T19:29:52.022Z,2.53
2023-03-28T19:32:18.536Z,2.53
2023-03-28T19:34:46.260Z,1.92
2023-03-28T19:37:12.772Z,2.30
2023-03-28T19:39:40.304Z,2.33
2023-03-28T19:42:06.967Z,2.17
2023-03-28T19:44:33.547Z,2.10
2023-03-28T19:47:00.078Z,2.10
2023-03-28T19:49:26.637Z,2.47
2023-03-28T19:51:53.361Z,2.75
2023-03-28T19:54:19.973Z,2.25
2023-03-28T19:56:46.859Z,1.63
2023-03-28T19:59:13.582Z,1.67
2023-03-28T20:01:40.117Z,1.65
2023-03-28T20:04:06.781Z,2.13
2023-03-28T20:06:33.314Z,1.70
2023-03-28T20:08:59.899Z,1.40
2023-03-28T20:11:26.781Z,1.60
2023-03-28T20:13:53.283Z,2.25
2023-03-28T20:16:19.819Z,2.20
2023-03-28T20:18:46.565Z,1.80
2023-03-28T20:21:13.873Z,1.92
2023-03-28T20:23:41.088Z,2.10
2023-03-28T20:26:21.967Z,1.73
2023-03-28T20:28:51.359Z,1.98
2023-03-28T20:31:18.745Z,2.10
2023-03-28T20:33:46.162Z,2.08
2023-03-28T20:36:12.682Z,2.55
2023-03-28T20:38:39.209Z,1.90
2023-03-28T20:41:16.920Z,2.00
2023-03-28T20:43:46.973Z,2.47
2023-03-28T20:46:18.913Z,2.15
2023-03-28T20:48:47.137Z,1.90
2023-03-28T20:51:16.904Z,2.00
2023-03-28T20:53:45.482Z,1.88
2023-03-28T20:56:13.314Z,2.20
2023-03-28T20:58:40.516Z,2.30
2023-03-28T21:01:08.938Z,1.85
2023-03-28T21:03:53.303Z,1.95
2023-03-28T21:06:39.584Z,1.90
2023-03-28T21:09:08.405Z,2.30
2023-03-28T21:11:37.200Z,1.98
2023-03-28T21:14:06.572Z,2.22
2023-03-28T21:16:33.129Z,2.30
2023-03-28T21:19:00.465Z,2.78
2023-03-28T21:21:30.573Z,2.55
2023-03-28T21:23:57.572Z,2.30
2023-03-28T21:26:24.676Z,3.10
2023-03-28T21:28:54.731Z,2.42
2023-03-28T21:31:30.848Z,2.10
2023-03-28T21:33:58.746Z,2.05
2023-03-28T21:36:26.388Z,2.63
2023-03-28T21:38:53.071Z,2.63
2023-03-28T21:41:19.655Z,2.72
2023-03-28T21:43:47.566Z,3.58
2023-03-28T21:46:15.433Z,2.00
2023-03-28T21:48:44.493Z,2.95
2023-03-28T21:51:10.956Z,2.88
2023-03-28T21:53:37.810Z,2.08
2023-03-28T21:56:04.903Z,2.47
2023-03-28T21:58:32.774Z,2.90
2023-03-28T22:01:01.347Z,1.88
2023-03-28T22:03:28.226Z,2.20
2023-03-28T22:05:54.828Z,2.35
2023-03-28T22:08:22.344Z,2.08
2023-03-28T22:10:58.409Z,2.30
2023-03-28T22:13:25.233Z,2.13
2023-03-28T22:15:52.736Z,1.95
2023-03-28T22:18:21.247Z,2.17
2023-03-28T22:20:53.042Z,1.98
2023-03-28T22:23:21.175Z,1.88
2023-03-28T22:25:48.100Z,1.65
2023-03-28T22:28:14.718Z,1.83
2023-03-28T22:30:41.491Z,1.63
2023-03-28T22:33:11.007Z,2.03
2023-03-28T22:35:38.367Z,2.30
2023-03-28T22:38:05.412Z,1.88
2023-03-28T22:40:31.959Z,1.73
2023-03-28T22:42:58.516Z,1.85
2023-03-28T22:45:28.550Z,1.70
2023-03-28T22:47:58.273Z,2.58
2023-03-28T22:50:24.976Z,2.13
2023-03-28T22:52:52.671Z,2.10
2023-03-28T22:55:22.381Z,1.90
2023-03-28T22:57:52.338Z,2.20
2023-03-28T23:00:22.900Z,1.92
2023-03-28T23:02:51.714Z,1.73
2023-03-28T23:05:19.530Z,1.65
2023-03-28T23:07:49.152Z,1.83
2023-03-28T23:10:18.016Z,2.10
2023-03-28T23:12:44.807Z,1.80
2023-03-28T23:15:11.513Z,1.90
2023-03-28T23:17:38.767Z,2.17
2023-03-28T23:20:12.507Z,1.83
2023-03-28T23:25:06.583Z,1.42
2023-03-28T23:27:33.185Z,1.58
2023-03-28T23:29:59.620Z,1.92
2023-03-28T23:32:26.093Z,2.90
2023-03-28T23:34:53.682Z,1.60
2023-03-28T23:37:26.029Z,2.10
2023-03-28T23:39:55.770Z,1.42
2023-03-28T23:42:22.606Z,1.80
2023-03-28T23:44:49.249Z,1.80
2023-03-28T23:47:16.522Z,1.40
2023-03-28T23:49:43.086Z,1.88
2023-03-28T23:52:12.601Z,1.70
2023-03-28T23:54:39.905Z,2.33
2023-03-28T23:57:07.357Z,1.42
2023-03-28T23:59:34.261Z,1.88
